Time;durP1;ratioP1;P1;durP2;ratioP2;P2;SDS_P1;SDS_P2;PMS_P1;PMS_P2;Temp;Humidity;BMP_temperature;BMP_pressure;BME280_temperature;BME280_humidity;BME280_pressure;Samples;Min_cycle;Max_cycle;Signal;HPM_P1;HPM_P2
2022/07/18 00:02:45;;;;;;;5.28;1.90;;;;;;;;;;4991586;28;21517;-65
2022/07/18 00:05:30;;;;;;;4.53;2.10;;;;;;;;;;4991913;28;20043;-71
2022/07/18 00:08:16;;;;;;;4.40;1.88;;;;;;;;;;4978531;28;20030;-71
2022/07/18 00:11:01;;;;;;;4.25;1.95;;;;;;;;;;4983457;28;20045;-70
2022/07/18 00:13:47;;;;;;;4.35;2.13;;;;;;;;;;4978920;28;20026;-70
2022/07/18 00:16:32;;;;;;;4.63;1.60;;;;;;;;;;4982053;28;20034;-71
2022/07/18 00:19:18;;;;;;;4.20;1.98;;;;;;;;;;4982602;28;20121;-72
2022/07/18 00:22:04;;;;;;;6.75;2.25;;;;;;;;;;4978684;28;20041;-69
2022/07/18 00:24:50;;;;;;;3.53;1.60;;;;;;;;;;4999732;28;20479;-67
2022/07/18 00:27:35;;;;;;;3.47;1.80;;;;;;;;;;4986690;28;20041;-69
2022/07/18 00:30:21;;;;;;;4.10;1.80;;;;;;;;;;5010541;28;20025;-69
2022/07/18 00:33:07;;;;;;;3.30;2.00;;;;;;;;;;5000896;28;20088;-68
2022/07/18 00:35:52;;;;;;;3.70;2.10;;;;;;;;;;4986965;28;20022;-68
2022/07/18 00:38:38;;;;;;;7.07;1.98;;;;;;;;;;4973565;28;20129;-69
2022/07/18 00:41:24;;;;;;;3.58;1.88;;;;;;;;;;4982332;28;20109;-76
2022/07/18 00:44:15;;;;;;;4.65;2.15;;;;;;;;;;4987973;28;20034;-63
2022/07/18 00:47:01;;;;;;;3.47;2.08;;;;;;;;;;4989662;28;20070;-64
2022/07/18 00:49:47;;;;;;;3.03;1.67;;;;;;;;;;4973286;28;20040;-63
2022/07/18 00:52:33;;;;;;;3.47;2.00;;;;;;;;;;4991711;28;20109;-62
2022/07/18 00:55:19;;;;;;;3.38;2.03;;;;;;;;;;5009985;28;20270;-63
2022/07/18 00:58:04;;;;;;;3.63;1.65;;;;;;;;;;5012979;28;20025;-68
2022/07/18 01:03:55;;;;;;;4.60;2.03;;;;;;;;;;5012902;28;20029;-67
2022/07/18 01:06:41;;;;;;;6.45;2.10;;;;;;;;;;5007103;28;20037;-67
2022/07/18 01:09:27;;;;;;;3.45;1.75;;;;;;;;;;5013493;28;20038;-65
2022/07/18 01:12:13;;;;;;;3.72;2.03;;;;;;;;;;5016889;28;20064;-66
2022/07/18 01:14:59;;;;;;;4.28;1.55;;;;;;;;;;5001330;28;20035;-67
2022/07/18 01:17:44;;;;;;;3.28;1.65;;;;;;;;;;4967114;28;20053;-63
2022/07/18 01:20:31;;;;;;;3.35;1.80;;;;;;;;;;4977962;28;20041;-71
2022/07/18 01:23:17;;;;;;;3.10;1.50;;;;;;;;;;4998688;28;20121;-70
2022/07/18 01:26:03;;;;;;;4.05;1.42;;;;;;;;;;4992546;28;20038;-70
2022/07/18 01:28:48;;;;;;;3.20;1.75;;;;;;;;;;4989439;28;20034;-70
2022/07/18 01:31:34;;;;;;;2.08;1.60;;;;;;;;;;4986174;28;20038;-71
2022/07/18 01:34:21;;;;;;;2.97;1.92;;;;;;;;;;4967672;28;20045;-70
2022/07/18 01:37:07;;;;;;;4.15;2.03;;;;;;;;;;4981791;28;20043;-63
2022/07/18 01:39:52;;;;;;;5.25;2.05;;;;;;;;;;5012771;28;20469;-68
2022/07/18 01:42:38;;;;;;;3.72;1.80;;;;;;;;;;5008414;28;20072;-63
2022/07/18 01:45:24;;;;;;;4.50;1.70;;;;;;;;;;4993894;28;20030;-64
2022/07/18 01:48:09;;;;;;;2.78;1.60;;;;;;;;;;4989678;28;20037;-63
2022/07/18 01:50:55;;;;;;;5.22;1.40;;;;;;;;;;5001604;28;20477;-63
2022/07/18 01:53:41;;;;;;;2.47;1.83;;;;;;;;;;4994068;28;20040;-71
2022/07/18 01:56:27;;;;;;;5.45;1.77;;;;;;;;;;4999835;28;20026;-64
2022/07/18 01:59:12;;;;;;;2.42;1.63;;;;;;;;;;5008101;28;20030;-72
2022/07/18 02:01:58;;;;;;;3.08;1.73;;;;;;;;;;5002573;28;20041;-71
2022/07/18 02:04:59;;;;;;;3.20;1.40;;;;;;;;;;4992943;28;20034;-71
2022/07/18 02:07:45;;;;;;;4.07;1.70;;;;;;;;;;4986194;28;20033;-70
2022/07/18 02:10:30;;;;;;;3.28;1.55;;;;;;;;;;4992168;28;20041;-71
2022/07/18 02:13:17;;;;;;;4.00;1.83;;;;;;;;;;4978897;28;20030;-70
2022/07/18 02:16:03;;;;;;;2.92;1.67;;;;;;;;;;4970268;28;20463;-74
2022/07/18 02:18:49;;;;;;;3.55;1.73;;;;;;;;;;4984422;28;20459;-77
2022/07/18 02:21:34;;;;;;;3.95;1.80;;;;;;;;;;4950918;28;20026;-75
2022/07/18 02:24:20;;;;;;;2.17;1.45;;;;;;;;;;4958269;28;20039;-76
2022/07/18 02:27:05;;;;;;;4.47;1.80;;;;;;;;;;4973359;28;20093;-75
2022/07/18 02:29:51;;;;;;;5.00;1.75;;;;;;;;;;4980876;28;20034;-75
2022/07/18 02:32:37;;;;;;;2.80;1.70;;;;;;;;;;4979844;28;20042;-67
2022/07/18 02:35:22;;;;;;;3.08;1.70;;;;;;;;;;4961255;28;20178;-72
2022/07/18 02:38:08;;;;;;;2.67;1.50;;;;;;;;;;4976137;28;20506;-72
2022/07/18 02:40:54;;;;;;;2.00;1.58;;;;;;;;;;4973940;28;20042;-70
2022/07/18 02:43:39;;;;;;;3.22;1.70;;;;;;;;;;4975684;28;20126;-72
2022/07/18 02:46:25;;;;;;;4.95;1.70;;;;;;;;;;4958670;28;20125;-71
2022/07/18 02:49:26;;;;;;;3.17;1.50;;;;;;;;;;4962321;28;20033;-64
2022/07/18 02:52:11;;;;;;;2.88;1.40;;;;;;;;;;4990354;28;20125;-75
2022/07/18 02:55:00;;;;;;;1.92;1.50;;;;;;;;;;4995569;28;20108;-75
2022/07/18 02:57:46;;;;;;;3.50;1.63;;;;;;;;;;4961466;28;20480;-75
2022/07/18 03:00:32;;;;;;;5.47;1.75;;;;;;;;;;4963764;28;20112;-74
2022/07/18 03:03:17;;;;;;;2.72;1.67;;;;;;;;;;5012167;28;20151;-74
2022/07/18 03:06:03;;;;;;;3.17;1.58;;;;;;;;;;5012008;28;20482;-75
2022/07/18 03:08:49;;;;;;;3.15;1.55;;;;;;;;;;4989714;28;20066;-70
2022/07/18 03:11:34;;;;;;;2.60;1.50;;;;;;;;;;5012848;28;20037;-70
2022/07/18 03:14:20;;;;;;;3.78;1.55;;;;;;;;;;5008908;28;20026;-71
2022/07/18 03:17:06;;;;;;;4.57;1.50;;;;;;;;;;5011090;28;21346;-71
2022/07/18 03:19:52;;;;;;;2.80;1.42;;;;;;;;;;5006758;28;20113;-70
2022/07/18 03:22:37;;;;;;;3.50;1.80;;;;;;;;;;4994227;28;20662;-70
2022/07/18 03:25:23;;;;;;;3.17;1.75;;;;;;;;;;5016460;28;20134;-67
2022/07/18 03:28:09;;;;;;;2.45;1.55;;;;;;;;;;4999111;28;20055;-64
2022/07/18 03:30:54;;;;;;;3.13;1.98;;;;;;;;;;5015834;28;20087;-75
2022/07/18 03:33:40;;;;;;;4.25;1.38;;;;;;;;;;5003364;28;20161;-76
2022/07/18 03:36:25;;;;;;;2.22;1.52;;;;;;;;;;5015529;28;20465;-77
2022/07/18 03:39:12;;;;;;;4.45;1.90;;;;;;;;;;5013616;28;20044;-75
2022/07/18 03:41:57;;;;;;;3.88;1.77;;;;;;;;;;5015411;28;20030;-76
2022/07/18 03:44:43;;;;;;;3.53;1.60;;;;;;;;;;5015235;28;20042;-71
2022/07/18 03:47:29;;;;;;;2.95;1.65;;;;;;;;;;5019215;28;20047;-66
2022/07/18 03:50:14;;;;;;;6.40;1.60;;;;;;;;;;5011740;28;20033;-65
2022/07/18 03:53:00;;;;;;;2.92;1.90;;;;;;;;;;4990624;28;20050;-67
2022/07/18 03:55:46;;;;;;;1.73;1.50;;;;;;;;;;4997649;28;20026;-69
2022/07/18 03:58:31;;;;;;;2.58;1.50;;;;;;;;;;4998592;28;20061;-65
2022/07/18 04:01:17;;;;;;;4.15;1.60;;;;;;;;;;4979669;28;20034;-64
2022/07/18 04:04:03;;;;;;;4.25;1.63;;;;;;;;;;4961500;28;20134;-66
2022/07/18 04:06:48;;;;;;;7.60;1.80;;;;;;;;;;4966667;28;20056;-64
2022/07/18 04:09:34;;;;;;;3.88;2.03;;;;;;;;;;4980145;28;20112;-67
2022/07/18 04:12:20;;;;;;;5.32;1.88;;;;;;;;;;4946637;28;20468;-68
2022/07/18 04:15:05;;;;;;;6.65;1.70;;;;;;;;;;4969626;28;20037;-69
2022/07/18 04:17:51;;;;;;;3.40;1.80;;;;;;;;;;4965293;28;20106;-67
2022/07/18 04:20:38;;;;;;;3.85;2.08;;;;;;;;;;4955399;28;20536;-69
2022/07/18 04:23:24;;;;;;;6.07;1.90;;;;;;;;;;4960445;28;20054;-70
2022/07/18 04:26:10;;;;;;;6.10;2.47;;;;;;;;;;4958016;28;20418;-78
2022/07/18 04:28:56;;;;;;;3.10;2.10;;;;;;;;;;4966552;28;20034;-74
2022/07/18 04:31:41;;;;;;;5.13;2.28;;;;;;;;;;4956034;28;20113;-76
2022/07/18 04:34:27;;;;;;;4.05;2.88;;;;;;;;;;4961873;28;20030;-71
2022/07/18 04:37:12;;;;;;;2.80;1.85;;;;;;;;;;4932602;28;20367;-71
2022/07/18 04:39:59;;;;;;;7.40;1.98;;;;;;;;;;4948857;28;20479;-77
2022/07/18 04:42:44;;;;;;;4.60;1.90;;;;;;;;;;4959371;28;20466;-71
2022/07/18 04:45:30;;;;;;;5.60;2.45;;;;;;;;;;4956363;28;20091;-69
2022/07/18 04:48:15;;;;;;;4.65;2.00;;;;;;;;;;4916416;28;20450;-70
2022/07/18 04:51:01;;;;;;;8.43;2.03;;;;;;;;;;4937405;28;20117;-70
2022/07/18 04:53:47;;;;;;;6.55;2.00;;;;;;;;;;4953378;28;20097;-71
2022/07/18 04:56:32;;;;;;;5.03;2.00;;;;;;;;;;4921786;28;20036;-72
2022/07/18 04:59:18;;;;;;;3.15;1.83;;;;;;;;;;4893576;28;20043;-73
2022/07/18 05:02:04;;;;;;;4.35;1.90;;;;;;;;;;4917524;28;20027;-73
2022/07/18 05:04:49;;;;;;;3.88;2.28;;;;;;;;;;4938633;28;20462;-74
2022/07/18 05:07:35;;;;;;;5.35;2.00;;;;;;;;;;4965332;28;20033;-74
2022/07/18 05:10:23;;;;;;;6.00;2.78;;;;;;;;;;4964808;28;20117;-73
2022/07/18 05:13:08;;;;;;;6.65;2.38;;;;;;;;;;4966880;28;20078;-72
2022/07/18 05:15:54;;;;;;;4.55;2.20;;;;;;;;;;4954335;28;20086;-74
2022/07/18 05:18:40;;;;;;;4.60;2.13;;;;;;;;;;4936807;28;20039;-71
2022/07/18 05:21:25;;;;;;;5.88;2.28;;;;;;;;;;4939850;28;20042;-79
2022/07/18 05:24:11;;;;;;;4.13;2.10;;;;;;;;;;4919636;28;20094;-76
2022/07/18 05:26:56;;;;;;;11.75;2.38;;;;;;;;;;4989000;28;20030;-79
2022/07/18 05:29:42;;;;;;;4.82;2.40;;;;;;;;;;4952709;28;20566;-78
2022/07/18 05:32:28;;;;;;;8.95;2.33;;;;;;;;;;4974221;28;20377;-77
2022/07/18 05:35:13;;;;;;;5.85;2.10;;;;;;;;;;4918709;28;20480;-73
2022/07/18 05:37:59;;;;;;;4.55;2.08;;;;;;;;;;4901052;28;20031;-77
2022/07/18 05:40:45;;;;;;;6.35;2.58;;;;;;;;;;4930453;29;20071;-80
2022/07/18 05:43:30;;;;;;;9.43;3.33;;;;;;;;;;4932579;28;20034;-79
2022/07/18 05:46:16;;;;;;;6.65;2.15;;;;;;;;;;4960336;28;20045;-78
2022/07/18 05:49:01;;;;;;;9.07;3.08;;;;;;;;;;4957552;28;20070;-78
2022/07/18 05:51:47;;;;;;;5.45;2.45;;;;;;;;;;4982836;28;20049;-79
2022/07/18 05:54:33;;;;;;;7.22;3.00;;;;;;;;;;4937247;28;20497;-73
2022/07/18 05:57:18;;;;;;;5.15;2.25;;;;;;;;;;4955310;28;20031;-73
2022/07/18 06:00:05;;;;;;;7.47;2.38;;;;;;;;;;4947603;28;20034;-73
2022/07/18 06:02:50;;;;;;;6.53;3.17;;;;;;;;;;4958348;28;20113;-74
2022/07/18 06:05:36;;;;;;;6.75;2.80;;;;;;;;;;4922678;29;20028;-73
2022/07/18 06:08:22;;;;;;;7.00;2.85;;;;;;;;;;4922048;29;20490;-74
2022/07/18 06:11:08;;;;;;;6.55;2.55;;;;;;;;;;4942787;28;20391;-74
2022/07/18 06:13:54;;;;;;;7.13;2.20;;;;;;;;;;4959127;28;20041;-76
2022/07/18 06:16:41;;;;;;;14.45;2.88;;;;;;;;;;4941465;28;20081;-74
2022/07/18 06:19:26;;;;;;;4.80;2.20;;;;;;;;;;4944149;28;20047;-70
2022/07/18 06:22:12;;;;;;;4.82;1.98;;;;;;;;;;4927624;28;20031;-71
2022/07/18 06:24:57;;;;;;;5.00;2.35;;;;;;;;;;4942559;28;20038;-72
2022/07/18 06:27:43;;;;;;;7.70;2.50;;;;;;;;;;4946357;28;20053;-72
2022/07/18 06:30:29;;;;;;;7.30;2.40;;;;;;;;;;4948499;28;20023;-77
2022/07/18 06:33:14;;;;;;;8.85;3.10;;;;;;;;;;4932764;28;20023;-76
2022/07/18 06:36:00;;;;;;;11.52;3.03;;;;;;;;;;4964007;28;20031;-78
2022/07/18 06:38:46;;;;;;;10.48;3.35;;;;;;;;;;4977150;28;20129;-77
2022/07/18 06:41:31;;;;;;;6.45;1.80;;;;;;;;;;4950351;28;20121;-78
2022/07/18 06:44:17;;;;;;;7.30;2.13;;;;;;;;;;4944519;28;20023;-78
2022/07/18 06:47:03;;;;;;;7.60;2.83;;;;;;;;;;4960838;28;20058;-78
2022/07/18 06:49:48;;;;;;;10.70;2.55;;;;;;;;;;4956468;28;20034;-72
2022/07/18 06:52:34;;;;;;;6.50;1.90;;;;;;;;;;4990958;28;20069;-79
2022/07/18 06:55:20;;;;;;;8.25;2.42;;;;;;;;;;4981868;28;20115;-78
2022/07/18 06:58:05;;;;;;;4.90;2.38;;;;;;;;;;4981381;28;20109;-77
2022/07/18 07:00:51;;;;;;;6.07;2.40;;;;;;;;;;4985383;28;20116;-77
2022/07/18 07:03:36;;;;;;;7.32;2.85;;;;;;;;;;4989396;28;20034;-75
2022/07/18 07:06:22;;;;;;;6.47;1.92;;;;;;;;;;4982264;28;20109;-77
2022/07/18 07:09:07;;;;;;;7.65;2.50;;;;;;;;;;4962044;28;20430;-73
2022/07/18 07:11:53;;;;;;;5.13;2.15;;;;;;;;;;4961539;28;20069;-74
2022/07/18 07:14:39;;;;;;;7.85;2.28;;;;;;;;;;4979469;28;20069;-74
2022/07/18 07:17:24;;;;;;;5.53;2.38;;;;;;;;;;4960560;28;20525;-74
2022/07/18 07:20:10;;;;;;;4.05;2.35;;;;;;;;;;4958627;28;20059;-73
2022/07/18 07:22:57;;;;;;;9.13;2.50;;;;;;;;;;4933814;28;20024;-73
2022/07/18 07:25:42;;;;;;;5.97;2.70;;;;;;;;;;4971556;28;20046;-74
2022/07/18 07:28:28;;;;;;;5.35;2.25;;;;;;;;;;4971208;28;20504;-73
2022/07/18 07:31:14;;;;;;;6.82;2.70;;;;;;;;;;4958727;28;20521;-74
2022/07/18 07:33:59;;;;;;;6.95;2.05;;;;;;;;;;4971031;28;20046;-74
2022/07/18 07:36:45;;;;;;;7.38;2.22;;;;;;;;;;4972979;28;20113;-74
2022/07/18 07:39:30;;;;;;;6.05;2.00;;;;;;;;;;4930608;28;20058;-74
2022/07/18 07:42:16;;;;;;;5.43;2.00;;;;;;;;;;4976402;28;20030;-73
2022/07/18 07:45:02;;;;;;;5.55;2.20;;;;;;;;;;4991525;28;20033;-74
2022/07/18 07:47:48;;;;;;;7.63;2.10;;;;;;;;;;4996635;28;20732;-74
2022/07/18 07:50:34;;;;;;;7.57;2.30;;;;;;;;;;4966839;28;20031;-74
2022/07/18 07:53:19;;;;;;;5.68;1.80;;;;;;;;;;4981487;28;20053;-75
2022/07/18 07:56:05;;;;;;;7.45;2.20;;;;;;;;;;4962436;28;20241;-74
2022/07/18 07:58:51;;;;;;;6.35;2.20;;;;;;;;;;4991362;28;20042;-75
2022/07/18 08:01:36;;;;;;;7.32;2.38;;;;;;;;;;4990869;28;20453;-76
2022/07/18 08:04:22;;;;;;;4.28;1.77;;;;;;;;;;4975959;28;20151;-73
2022/07/18 08:07:08;;;;;;;8.68;2.53;;;;;;;;;;4979762;28;20077;-74
2022/07/18 08:09:54;;;;;;;11.10;2.50;;;;;;;;;;4991991;28;20030;-73
2022/07/18 08:12:39;;;;;;;9.15;2.10;;;;;;;;;;5008823;28;20075;-74
2022/07/18 08:15:25;;;;;;;6.75;2.10;;;;;;;;;;4986397;28;20033;-76
2022/07/18 08:18:11;;;;;;;8.65;2.63;;;;;;;;;;4977790;28;20140;-75
2022/07/18 08:20:57;;;;;;;7.53;2.40;;;;;;;;;;4994555;28;20508;-75
2022/07/18 08:23:43;;;;;;;8.63;2.25;;;;;;;;;;5000379;28;20034;-75
2022/07/18 08:26:28;;;;;;;11.00;2.60;;;;;;;;;;5010592;28;20038;-74
2022/07/18 08:29:14;;;;;;;9.63;2.58;;;;;;;;;;5001467;28;20038;-73
2022/07/18 08:31:59;;;;;;;7.38;2.67;;;;;;;;;;5016488;28;20073;-73
2022/07/18 08:34:45;;;;;;;3.95;1.95;;;;;;;;;;5004695;28;20380;-73
2022/07/18 08:37:31;;;;;;;4.90;2.22;;;;;;;;;;5007344;28;20026;-70
2022/07/18 08:40:16;;;;;;;5.13;1.98;;;;;;;;;;5008520;28;20392;-75
2022/07/18 08:43:02;;;;;;;8.90;2.78;;;;;;;;;;5001882;28;20058;-72
2022/07/18 08:45:48;;;;;;;3.20;2.00;;;;;;;;;;4993195;28;20105;-73
2022/07/18 08:48:33;;;;;;;4.82;2.70;;;;;;;;;;4968332;28;20065;-71
2022/07/18 08:51:19;;;;;;;7.32;2.72;;;;;;;;;;4989441;28;20037;-72
2022/07/18 08:54:04;;;;;;;8.30;3.20;;;;;;;;;;4991024;28;20036;-75
2022/07/18 08:56:50;;;;;;;7.78;2.70;;;;;;;;;;4998578;28;20038;-78
2022/07/18 08:59:36;;;;;;;5.10;2.45;;;;;;;;;;4997625;28;20032;-74
2022/07/18 09:02:28;;;;;;;10.32;2.47;;;;;;;;;;5006573;28;20492;-71
2022/07/18 09:05:17;;;;;;;4.38;2.13;;;;;;;;;;5005268;28;20502;-73
2022/07/18 09:08:16;;;;;;;7.10;2.72;;;;;;;;;;5003879;28;20654;-69
2022/07/18 09:11:02;;;;;;;;;;;;;;;;;;4986794;28;20038;-71
2022/07/18 09:13:47;;;;;;;7.00;2.70;;;;;;;;;;5010472;28;19913;-70
2022/07/18 09:16:33;;;;;;;8.90;2.63;;;;;;;;;;5000582;28;20034;-75
2022/07/18 09:19:18;;;;;;;7.97;2.95;;;;;;;;;;4997201;28;20508;-74
2022/07/18 09:22:14;;;;;;;3.78;2.30;;;;;;;;;;4968610;28;20050;-73
2022/07/18 09:25:01;;;;;;;10.27;2.72;;;;;;;;;;4965682;28;20074;-74
2022/07/18 09:27:48;;;;;;;3.80;2.17;;;;;;;;;;4962384;28;20116;-74
2022/07/18 09:30:35;;;;;;;2.88;1.83;;;;;;;;;;4992789;28;20030;-75
2022/07/18 09:33:21;;;;;;;4.50;2.05;;;;;;;;;;4982877;28;20118;-71
2022/07/18 09:36:07;;;;;;;4.45;2.47;;;;;;;;;;4942762;28;20035;-76
2022/07/18 09:38:52;;;;;;;5.25;1.95;;;;;;;;;;4943403;28;20058;-72
2022/07/18 09:41:38;;;;;;;3.42;1.85;;;;;;;;;;4937650;28;20034;-72
2022/07/18 09:44:23;;;;;;;4.38;2.00;;;;;;;;;;4960162;28;20030;-71
2022/07/18 09:47:09;;;;;;;4.88;2.20;;;;;;;;;;4966773;28;20074;-74
2022/07/18 09:49:56;;;;;;;6.25;2.35;;;;;;;;;;4992279;28;21612;-70
2022/07/18 09:52:41;;;;;;;3.70;1.88;;;;;;;;;;4957163;28;20284;-73
2022/07/18 09:55:27;;;;;;;6.60;2.35;;;;;;;;;;4973469;28;20446;-75
2022/07/18 09:58:14;;;;;;;3.75;1.95;;;;;;;;;;4976360;28;20096;-76
2022/07/18 10:01:01;;;;;;;3.25;1.70;;;;;;;;;;4955046;28;20047;-75
2022/07/18 10:03:49;;;;;;;4.03;1.77;;;;;;;;;;4969315;28;20038;-74
2022/07/18 10:06:34;;;;;;;3.85;2.00;;;;;;;;;;4943353;28;20034;-76
2022/07/18 10:09:20;;;;;;;7.80;2.47;;;;;;;;;;4931368;28;20035;-76
2022/07/18 10:12:07;;;;;;;3.53;2.30;;;;;;;;;;4965077;28;20037;-76
2022/07/18 10:14:53;;;;;;;6.00;2.60;;;;;;;;;;4981778;28;20042;-72
2022/07/18 10:17:39;;;;;;;5.47;2.30;;;;;;;;;;4984643;28;20046;-72
2022/07/18 10:20:27;;;;;;;4.57;2.05;;;;;;;;;;4974023;28;20026;-71
2022/07/18 10:23:12;;;;;;;3.95;1.73;;;;;;;;;;4968487;28;20031;-71
2022/07/18 10:26:13;;;;;;;3.65;2.15;;;;;;;;;;4971177;28;20128;-70
2022/07/18 10:29:01;;;;;;;2.83;1.80;;;;;;;;;;4994236;28;20049;-62
2022/07/18 10:32:01;;;;;;;4.07;2.03;;;;;;;;;;4979281;28;20035;-72
2022/07/18 10:34:46;;;;;;;4.18;1.60;;;;;;;;;;4973026;28;20054;-65
2022/07/18 10:37:35;;;;;;;4.45;2.33;;;;;;;;;;4973116;28;20065;-67
2022/07/18 10:40:22;;;;;;;4.13;1.67;;;;;;;;;;4947671;28;20490;-66
2022/07/18 10:43:26;;;;;;;2.58;2.00;;;;;;;;;;4963528;28;20038;-66
2022/07/18 10:46:12;;;;;;;6.60;1.90;;;;;;;;;;4936305;28;20046;-66
2022/07/18 10:48:58;;;;;;;4.63;1.70;;;;;;;;;;4949066;28;20038;-73
2022/07/18 10:51:43;;;;;;;3.90;1.80;;;;;;;;;;4954628;28;20389;-76
2022/07/18 10:54:29;;;;;;;2.45;1.80;;;;;;;;;;4955292;28;20031;-75
2022/07/18 10:57:15;;;;;;;2.85;1.50;;;;;;;;;;4937322;28;20077;-74
2022/07/18 11:00:05;;;;;;;6.68;1.80;;;;;;;;;;4954969;28;20287;-74
2022/07/18 11:03:09;;;;;;;2.90;1.60;;;;;;;;;;4975954;28;20450;-73
2022/07/18 11:05:56;;;;;;;3.38;1.35;;;;;;;;;;5014655;28;20041;-74
2022/07/18 11:08:42;;;;;;;2.47;1.50;;;;;;;;;;4983014;28;20065;-72
2022/07/18 11:11:27;;;;;;;3.30;1.30;;;;;;;;;;4965342;28;20030;-77
2022/07/18 11:14:33;;;;;;;1.98;1.38;;;;;;;;;;4987388;28;20104;-76
2022/07/18 11:17:19;;;;;;;3.22;1.38;;;;;;;;;;4957868;28;20038;-78
2022/07/18 11:20:23;;;;;;;3.45;1.10;;;;;;;;;;4986997;28;20026;-77
2022/07/18 11:23:19;;;;;;;2.42;1.30;;;;;;;;;;4961879;28;20065;-75
2022/07/18 11:26:04;;;;;;;2.38;1.10;;;;;;;;;;4964909;28;20027;-76
2022/07/18 11:28:58;;;;;;;2.47;1.23;;;;;;;;;;4943195;28;20041;-75
2022/07/18 11:31:48;;;;;;;4.13;1.48;;;;;;;;;;4922808;28;20040;-73
2022/07/18 11:34:34;;;;;;;3.45;1.45;;;;;;;;;;4959847;28;20042;-72
2022/07/18 11:37:20;;;;;;;2.92;1.38;;;;;;;;;;4980884;28;20026;-72
2022/07/18 11:40:07;;;;;;;2.10;1.20;;;;;;;;;;4988406;28;20084;-71
2022/07/18 11:42:55;;;;;;;1.42;1.30;;;;;;;;;;4981744;28;20533;-71
2022/07/18 11:45:41;;;;;;;3.67;1.02;;;;;;;;;;4970766;28;20409;-74
2022/07/18 11:48:27;;;;;;;2.50;1.50;;;;;;;;;;4991998;28;20034;-75
2022/07/18 11:51:21;;;;;;;3.05;1.52;;;;;;;;;;4992607;28;20040;-75
2022/07/18 11:54:07;;;;;;;2.47;1.20;;;;;;;;;;5008756;28;20025;-75
2022/07/18 11:56:56;;;;;;;1.70;1.20;;;;;;;;;;4956152;28;20037;-74
2022/07/18 11:59:43;;;;;;;;;;;;;;;;;;4959830;28;20069;-75
2022/07/18 12:02:47;;;;;;;3.80;1.10;;;;;;;;;;4974949;28;19976;-80
2022/07/18 12:05:41;;;;;;;3.58;1.30;;;;;;;;;;4964189;28;20035;-74
2022/07/18 12:08:31;;;;;;;2.90;1.05;;;;;;;;;;4958596;28;20461;-75
2022/07/18 12:11:27;;;;;;;2.42;2.22;;;;;;;;;;4952056;28;20461;-75
2022/07/18 12:14:14;;;;;;;3.80;1.65;;;;;;;;;;4969219;28;20132;-74
2022/07/18 12:17:00;;;;;;;10.40;1.80;;;;;;;;;;4994162;28;20461;-75
2022/07/18 12:19:45;;;;;;;3.45;1.45;;;;;;;;;;5004052;28;20477;-81
2022/07/18 12:22:31;;;;;;;2.50;1.40;;;;;;;;;;4992834;28;20571;-78
2022/07/18 12:25:17;;;;;;;7.40;1.42;;;;;;;;;;4991445;28;20073;-82
2022/07/18 12:28:15;;;;;;;2.67;1.35;;;;;;;;;;4999519;28;20524;-79
2022/07/18 12:31:01;;;;;;;;;;;;;;;;;;4991318;28;21298;-79
2022/07/18 12:34:06;;;;;;;3.10;1.50;;;;;;;;;;5002051;28;19964;-79
2022/07/18 12:36:59;;;;;;;6.32;1.30;;;;;;;;;;4949943;28;20036;-79
2022/07/18 12:39:44;;;;;;;2.67;1.35;;;;;;;;;;4987547;28;20457;-75
2022/07/18 12:42:34;;;;;;;2.83;1.17;;;;;;;;;;4997409;28;20038;-71
2022/07/18 12:45:20;;;;;;;1.33;1.20;;;;;;;;;;4985180;28;20433;-71
2022/07/18 12:48:06;;;;;;;3.95;1.48;;;;;;;;;;4943006;28;20058;-70
2022/07/18 12:50:56;;;;;;;2.10;1.27;;;;;;;;;;4963500;28;20049;-71
2022/07/18 12:53:42;;;;;;;2.80;1.40;;;;;;;;;;4954851;28;20031;-71
2022/07/18 12:56:28;;;;;;;2.60;1.48;;;;;;;;;;4954405;28;20474;-78
2022/07/18 12:59:13;;;;;;;1.75;1.23;;;;;;;;;;4949886;28;20046;-75
2022/07/18 13:01:59;;;;;;;3.00;1.52;;;;;;;;;;4984564;28;20026;-75
2022/07/18 13:04:45;;;;;;;3.00;1.40;;;;;;;;;;4970004;28;20029;-76
2022/07/18 13:07:30;;;;;;;1.80;1.50;;;;;;;;;;4948353;28;20030;-76
2022/07/18 13:10:16;;;;;;;1.98;1.45;;;;;;;;;;4953600;28;20039;-75
2022/07/18 13:13:03;;;;;;;2.45;1.50;;;;;;;;;;4971345;28;20043;-75
2022/07/18 13:15:48;;;;;;;4.22;1.40;;;;;;;;;;4992955;28;20049;-73
2022/07/18 13:18:34;;;;;;;3.90;1.20;;;;;;;;;;4988129;28;20078;-74
2022/07/18 13:21:20;;;;;;;2.67;1.10;;;;;;;;;;5007645;28;20503;-74
2022/07/18 13:24:05;;;;;;;4.45;1.60;;;;;;;;;;4999470;28;20026;-75
2022/07/18 13:26:51;;;;;;;5.75;1.33;;;;;;;;;;4991486;28;20044;-74
2022/07/18 13:29:36;;;;;;;4.40;1.52;;;;;;;;;;4995592;28;20037;-73
2022/07/18 13:32:22;;;;;;;1.63;1.30;;;;;;;;;;4994625;28;20029;-73
2022/07/18 13:35:08;;;;;;;4.63;1.30;;;;;;;;;;5007557;28;20056;-69
2022/07/18 13:37:53;;;;;;;3.10;1.40;;;;;;;;;;5007639;28;20492;-76
2022/07/18 13:40:39;;;;;;;2.90;1.55;;;;;;;;;;5014668;28;20088;-78
2022/07/18 13:43:24;;;;;;;2.55;1.48;;;;;;;;;;5014504;28;20037;-78
2022/07/18 13:46:11;;;;;;;2.17;1.40;;;;;;;;;;5016162;28;20037;-75
2022/07/18 13:48:56;;;;;;;4.00;1.65;;;;;;;;;;5014432;28;20058;-76
2022/07/18 13:51:42;;;;;;;3.50;1.58;;;;;;;;;;5012541;28;20112;-77
2022/07/18 13:54:27;;;;;;;2.22;1.10;;;;;;;;;;5014007;28;20033;-76
2022/07/18 13:57:13;;;;;;;1.52;1.27;;;;;;;;;;4965813;28;20496;-77
2022/07/18 13:59:59;;;;;;;4.10;1.77;;;;;;;;;;4984565;28;20386;-74
2022/07/18 14:02:45;;;;;;;2.22;1.50;;;;;;;;;;4982017;28;20492;-76
2022/07/18 14:05:30;;;;;;;4.25;1.40;;;;;;;;;;5003672;28;20083;-75
2022/07/18 14:08:16;;;;;;;3.33;1.30;;;;;;;;;;5001105;28;20421;-75
2022/07/18 14:11:01;;;;;;;3.10;1.60;;;;;;;;;;5001304;28;20030;-76
2022/07/18 14:13:47;;;;;;;3.45;1.50;;;;;;;;;;5000270;28;20026;-71
2022/07/18 14:16:33;;;;;;;2.30;1.60;;;;;;;;;;4996502;28;20068;-71
2022/07/18 14:19:19;;;;;;;6.60;1.60;;;;;;;;;;4995175;28;20025;-70
2022/07/18 14:22:05;;;;;;;2.08;1.52;;;;;;;;;;5014450;28;20038;-72
2022/07/18 14:24:50;;;;;;;3.75;1.40;;;;;;;;;;5000758;28;20050;-71
2022/07/18 14:27:36;;;;;;;3.40;1.80;;;;;;;;;;4979504;28;20138;-70
2022/07/18 14:30:22;;;;;;;3.50;1.55;;;;;;;;;;4979013;28;20486;-78
2022/07/18 14:33:07;;;;;;;2.67;1.88;;;;;;;;;;4992917;28;20044;-76
2022/07/18 14:35:53;;;;;;;2.70;1.88;;;;;;;;;;4981421;28;20401;-78
2022/07/18 14:38:38;;;;;;;2.78;1.70;;;;;;;;;;4999404;28;20540;-78
2022/07/18 14:41:24;;;;;;;2.75;1.35;;;;;;;;;;4997819;28;20392;-79
2022/07/18 14:44:10;;;;;;;3.60;1.52;;;;;;;;;;4990122;28;20038;-79
2022/07/18 14:46:55;;;;;;;3.63;2.08;;;;;;;;;;4989672;28;20436;-81
2022/07/18 14:49:41;;;;;;;4.43;1.73;;;;;;;;;;4988695;28;20026;-76
2022/07/18 14:52:26;;;;;;;2.42;1.50;;;;;;;;;;4984932;28;20555;-78
2022/07/18 14:55:12;;;;;;;8.45;2.20;;;;;;;;;;4981979;28;20109;-80
2022/07/18 14:57:58;;;;;;;4.90;2.30;;;;;;;;;;4989809;28;20101;-76
2022/07/18 15:00:43;;;;;;;5.45;1.60;;;;;;;;;;4972930;28;20083;-76
2022/07/18 15:03:29;;;;;;;3.70;1.77;;;;;;;;;;4937933;28;20098;-76
2022/07/18 15:06:16;;;;;;;2.55;1.77;;;;;;;;;;4966564;28;20027;-69
2022/07/18 15:09:01;;;;;;;5.03;1.83;;;;;;;;;;4972628;28;20044;-70
2022/07/18 15:11:47;;;;;;;4.10;1.77;;;;;;;;;;4999592;28;20069;-71
2022/07/18 15:14:33;;;;;;;5.50;2.15;;;;;;;;;;5004374;28;20030;-69
2022/07/18 15:17:19;;;;;;;5.20;1.52;;;;;;;;;;5005133;28;20048;-73
2022/07/18 15:20:05;;;;;;;4.53;1.88;;;;;;;;;;4987647;28;20478;-73
2022/07/18 15:22:51;;;;;;;9.73;2.10;;;;;;;;;;4986129;28;20069;-71
2022/07/18 15:25:36;;;;;;;5.13;2.00;;;;;;;;;;4993211;28;20367;-80
2022/07/18 15:28:22;;;;;;;3.78;2.10;;;;;;;;;;4987984;28;20041;-80
2022/07/18 15:31:08;;;;;;;5.57;2.10;;;;;;;;;;4992399;28;20462;-79
2022/07/18 15:33:55;;;;;;;3.25;1.92;;;;;;;;;;5006984;28;20065;-80
2022/07/18 15:36:41;;;;;;;4.18;2.15;;;;;;;;;;5005243;28;20057;-79
2022/07/18 15:39:26;;;;;;;5.15;2.00;;;;;;;;;;5002699;28;20519;-81
2022/07/18 15:42:13;;;;;;;5.10;2.13;;;;;;;;;;4986825;28;20061;-73
2022/07/18 15:44:58;;;;;;;2.65;2.03;;;;;;;;;;5010790;28;20072;-74
2022/07/18 15:47:44;;;;;;;2.38;1.85;;;;;;;;;;5010357;28;20436;-74
2022/07/18 15:50:30;;;;;;;3.92;2.08;;;;;;;;;;4999967;28;20388;-77
2022/07/18 15:53:16;;;;;;;3.55;1.88;;;;;;;;;;5004651;28;20084;-74
2022/07/18 15:56:02;;;;;;;7.82;1.63;;;;;;;;;;5010948;28;20029;-69
2022/07/18 15:58:47;;;;;;;4.60;1.52;;;;;;;;;;5003040;28;20104;-68
2022/07/18 16:01:33;;;;;;;4.93;1.95;;;;;;;;;;5002895;28;20222;-63
2022/07/18 16:04:19;;;;;;;2.80;1.83;;;;;;;;;;5004197;28;20032;-69
2022/07/18 16:07:04;;;;;;;3.83;1.90;;;;;;;;;;5011204;28;20184;-70
2022/07/18 16:09:50;;;;;;;3.17;1.67;;;;;;;;;;4999909;28;20045;-70
2022/07/18 16:12:35;;;;;;;2.50;1.67;;;;;;;;;;5006053;28;20033;-70
2022/07/18 16:15:21;;;;;;;3.50;1.65;;;;;;;;;;5015077;28;23155;-70
2022/07/18 16:18:07;;;;;;;3.38;1.88;;;;;;;;;;5012794;28;20408;-69
2022/07/18 16:20:52;;;;;;;5.03;2.00;;;;;;;;;;4985257;28;20041;-68
2022/07/18 16:23:38;;;;;;;3.08;2.25;;;;;;;;;;5012584;28;20049;-69
2022/07/18 16:26:24;;;;;;;4.60;1.98;;;;;;;;;;5007804;28;20025;-72
2022/07/18 16:29:09;;;;;;;3.13;1.52;;;;;;;;;;5004719;28;20038;-69
2022/07/18 16:31:55;;;;;;;3.00;2.08;;;;;;;;;;5019750;28;20099;-69
2022/07/18 16:34:41;;;;;;;6.15;2.15;;;;;;;;;;5008894;28;20055;-73
2022/07/18 16:37:26;;;;;;;4.80;1.98;;;;;;;;;;5011129;28;20030;-72
2022/07/18 16:40:12;;;;;;;4.65;1.77;;;;;;;;;;5007901;28;20029;-68
2022/07/18 16:42:58;;;;;;;3.38;1.60;;;;;;;;;;5002590;28;20033;-68